Time,TemperatureF,DewpointF,PressureIn,WindDirection,WindDirectionDegrees,WindSpeedMPH,WindSpeedGustMPH,Humidity,HourlyPrecipIn,Conditions,Clouds,dailyrainin,SolarRadiationWatts/m^2,SoftwareType,DateUTC
2013-03-12 00:04:00,25.6,11.7,30.23,SSW,192,0.0,0.0,55,0.00,,,0.00,0,Wunderground v.1.15,2013-03-12 06:04:00,
2013-03-12 00:10:00,25.8,11.8,30.23,SSW,192,0.0,0.0,55,0.00,,,0.00,0,Wunderground v.1.15,2013-03-12 06:10:00,
2013-03-12 00:16:00,26.0,11.6,30.22,SSW,192,0.0,0.0,54,0.00,,,0.00,0,Wunderground v.1.15,2013-03-12 06:16:00,
2013-03-12 00:22:00,26.0,11.2,30.23,SSW,192,0.0,0.0,53,0.00,,,0.00,0,Wunderground v.1.15,2013-03-12 06:22:00,
2013-03-12 00:28:00,25.9,11.1,30.23,SSW,192,1.0,3.0,53,0.00,,,0.00,0,Wunderground v.1.15,2013-03-12 06:28:00,
2013-03-12 00:34:00,25.7,11.3,30.22,SSW,192,2.0,2.0,54,0.00,,,0.00,0,Wunderground v.1.15,2013-03-12 06:34:00,
2013-03-12 00:40:00,25.6,12.1,30.23,SSW,192,1.0,1.0,56,0.00,,,0.00,0,Wunderground v.1.15,2013-03-12 06:40:00,
2013-03-12 00:46:00,25.6,12.1,30.22,SSW,192,1.0,1.0,56,0.00,,,0.00,0,Wunderground v.1.15,2013-03-12 06:46:00,
2013-03-12 00:52:00,25.2,12.5,30.23,ENE,75,1.0,4.0,58,0.00,,,0.00,0,Wunderground v.1.15,2013-03-12 06:52:00,
2013-03-12 00:58:00,24.5,12.2,30.23,ENE,76,3.0,4.0,59,0.00,,,0.00,0,Wunderground v.1.15,2013-03-12 06:58:00,
2013-03-12 01:04:00,24.0,12.1,30.23,ESE,107,4.0,5.0,60,0.00,,,0.00,0,Wunderground v.1.15,2013-03-12 07:04:00,
2013-03-12 01:10:00,23.8,12.3,30.23,ENE,67,4.0,4.0,61,0.00,,,0.00,0,Wunderground v.1.15,2013-03-12 07:10:00,
2013-03-12 01:16:00,23.5,12.4,30.23,East,85,4.0,4.0,62,0.00,,,0.00,0,Wunderground v.1.15,2013-03-12 07:16:00,
2013-03-12 01:24:00,22.9,12.2,30.23,East,82,3.0,3.0,63,0.00,,,0.00,0,Wunderground v.1.15,2013-03-12 07:24:00,
2013-03-12 01:30:00,22.7,13.0,30.23,East,90,3.0,3.0,66,0.00,,,0.00,0,Wunderground v.1.15,2013-03-12 07:30:00,
2013-03-12 01:36:00,22.4,11.7,30.23,East,90,2.0,3.0,63,0.00,,,0.00,0,Wunderground v.1.15,2013-03-12 07:36:00,
2013-03-12 01:42:00,21.9,11.9,30.23,East,89,1.0,2.0,65,0.00,,,0.00,0,Wunderground v.1.15,2013-03-12 07:42:00,
2013-03-12 01:48:00,21.6,12.7,30.22,East,89,2.0,3.0,68,0.00,,,0.00,0,Wunderground v.1.15,2013-03-12 07:48:00,
2013-03-12 01:54:00,21.5,12.9,30.22,East,90,2.0,3.0,69,0.00,,,0.00,0,Wunderground v.1.15,2013-03-12 07:54:00,
2013-03-12 02:00:00,21.7,12.8,30.23,East,90,2.0,2.0,68,0.00,,,0.00,0,Wunderground v.1.15,2013-03-12 08:00:00,
2013-03-12 02:06:00,22.1,12.8,30.23,NNE,27,2.0,5.0,67,0.00,,,0.00,0,Wunderground v.1.15,2013-03-12 08:06:00,
2013-03-12 02:12:00,22.6,12.6,30.22,NE,34,3.0,3.0,65,0.00,,,0.00,0,Wunderground v.1.15,2013-03-12 08:12:00,
2013-03-12 02:18:00,23.3,12.9,30.23,ENE,76,2.0,5.0,64,0.00,,,0.00,0,Wunderground v.1.15,2013-03-12 08:18:00,
2013-03-12 02:24:00,23.9,13.1,30.23,ENE,71,3.0,3.0,63,0.00,,,0.00,0,Wunderground v.1.15,2013-03-12 08:24:00,
2013-03-12 02:30:00,24.1,14.0,30.23,ENE,72,2.0,2.0,65,0.00,,,0.00,0,Wunderground v.1.15,2013-03-12 08:30:00,
2013-03-12 02:38:00,23.9,13.5,30.23,ENE,74,2.0,4.0,64,0.00,,,0.00,0,Wunderground v.1.15,2013-03-12 08:38:00,
2013-03-12 02:44:00,24.0,13.2,30.24,ENE,69,3.0,3.0,63,0.00,,,0.00,0,Wunderground v.1.15,2013-03-12 08:44:00,
2013-03-12 02:50:00,24.3,14.2,30.24,East,84,3.0,3.0,65,0.00,,,0.00,0,Wunderground v.1.15,2013-03-12 08:50:00,
2013-03-12 02:56:00,24.6,13.8,30.24,ENE,63,2.0,3.0,63,0.00,,,0.00,0,Wunderground v.1.15,2013-03-12 08:56:00,
2013-03-12 03:04:00,25.1,14.3,30.24,ENE,75,1.0,3.0,63,0.00,,,0.00,0,Wunderground v.1.15,2013-03-12 09:04:00,
2013-03-12 03:12:00,25.4,15.3,30.24,ENE,63,2.0,2.0,65,0.00,,,0.00,0,Wunderground v.1.15,2013-03-12 09:12:00,
2013-03-12 03:18:00,25.5,15.4,30.24,ENE,63,1.0,2.0,65,0.00,,,0.00,0,Wunderground v.1.15,2013-03-12 09:18:00,
2013-03-12 03:24:00,25.5,15.4,30.24,ENE,63,0.0,0.0,65,0.00,,,0.00,0,Wunderground v.1.15,2013-03-12 09:24:00,
2013-03-12 03:30:00,25.4,15.6,30.23,ENE,72,1.0,1.0,66,0.00,,,0.00,0,Wunderground v.1.15,2013-03-12 09:30:00,
2013-03-12 03:36:00,25.3,15.2,30.23,ENE,66,1.0,1.0,65,0.00,,,0.00,0,Wunderground v.1.15,2013-03-12 09:36:00,
2013-03-12 03:42:00,25.0,15.2,30.23,East,88,2.0,4.0,66,0.00,,,0.00,0,Wunderground v.1.15,2013-03-12 09:42:00,
2013-03-12 03:52:00,24.7,14.9,30.24,East,81,2.0,2.0,66,0.00,,,0.00,0,Wunderground v.1.15,2013-03-12 09:52:00,
2013-03-12 03:58:00,24.5,15.1,30.23,ESE,111,2.0,4.0,67,0.00,,,0.00,0,Wunderground v.1.15,2013-03-12 09:58:00,
2013-03-12 04:04:00,24.4,15.0,30.23,East,80,2.0,4.0,67,0.00,,,0.00,0,Wunderground v.1.15,2013-03-12 10:04:00,
2013-03-12 04:10:00,24.5,15.4,30.22,ENE,58,2.0,2.0,68,0.00,,,0.00,0,Wunderground v.1.15,2013-03-12 10:10:00,
2013-03-12 04:18:00,24.9,15.1,30.22,NE,56,4.0,6.0,66,0.00,,,0.00,0,Wunderground v.1.15,2013-03-12 10:18:00,
2013-03-12 04:24:00,25.2,15.4,30.22,ESE,111,3.0,5.0,66,0.00,,,0.00,0,Wunderground v.1.15,2013-03-12 10:24:00,
2013-03-12 04:32:00,25.4,15.6,30.21,ENE,63,3.0,3.0,66,0.00,,,0.00,0,Wunderground v.1.15,2013-03-12 10:32:00,
2013-03-12 04:38:00,25.5,16.1,30.21,ENE,68,4.0,5.0,67,0.00,,,0.00,0,Wunderground v.1.15,2013-03-12 10:38:00,
2013-03-12 04:44:00,25.4,16.0,30.21,ENE,75,4.0,5.0,67,0.00,,,0.00,0,Wunderground v.1.15,2013-03-12 10:44:00,
2013-03-12 04:50:00,25.3,15.5,30.20,ENE,59,5.0,6.0,66,0.00,,,0.00,0,Wunderground v.1.15,2013-03-12 10:50:00,
2013-03-12 04:56:00,25.4,15.6,30.20,NE,56,5.0,6.0,66,0.00,,,0.00,0,Wunderground v.1.15,2013-03-12 10:56:00,
2013-03-12 05:04:00,25.6,15.5,30.21,ENE,65,5.0,7.0,65,0.00,,,0.00,0,Wunderground v.1.15,2013-03-12 11:04:00,
2013-03-12 05:10:00,25.8,15.6,30.21,ENE,61,5.0,5.0,65,0.00,,,0.00,0,Wunderground v.1.15,2013-03-12 11:10:00,
2013-03-12 05:16:00,25.9,15.4,30.21,NE,53,5.0,5.0,64,0.00,,,0.00,0,Wunderground v.1.15,2013-03-12 11:16:00,
2013-03-12 05:22:00,26.0,15.5,30.21,NE,42,5.0,6.0,64,0.00,,,0.00,0,Wunderground v.1.15,2013-03-12 11:22:00,
2013-03-12 05:28:00,26.1,15.2,30.21,NE,40,5.0,6.0,63,0.00,,,0.00,0,Wunderground v.1.15,2013-03-12 11:28:00,
2013-03-12 05:34:00,26.2,15.3,30.21,ENE,61,5.0,6.0,63,0.00,,,0.00,0,Wunderground v.1.15,2013-03-12 11:34:00,
2013-03-12 05:40:00,26.4,15.5,30.21,ENE,69,5.0,6.0,63,0.00,,,0.00,0,Wunderground v.1.15,2013-03-12 11:40:00,
2013-03-12 05:46:00,26.7,15.4,30.21,ENE,69,5.0,6.0,62,0.00,,,0.00,0,Wunderground v.1.15,2013-03-12 11:46:00,
2013-03-12 05:52:00,27.0,15.7,30.20,ENE,59,4.0,6.0,62,0.00,,,0.00,0,Wunderground v.1.15,2013-03-12 11:52:00,
2013-03-12 06:00:00,27.3,16.0,30.21,ENE,64,4.0,4.0,62,0.00,,,0.00,0,Wunderground v.1.15,2013-03-12 12:00:00,
2013-03-12 06:12:00,27.8,16.1,30.21,ENE,67,5.0,5.0,61,0.00,,,0.00,0,Wunderground v.1.15,2013-03-12 12:12:00,
2013-03-12 06:18:00,28.0,15.9,30.21,NE,55,5.0,6.0,60,0.00,,,0.00,0,Wunderground v.1.15,2013-03-12 12:18:00,
2013-03-12 06:24:00,28.3,16.2,30.20,NE,42,6.0,6.0,60,0.00,,,0.00,0,Wunderground v.1.15,2013-03-12 12:24:00,
2013-03-12 06:32:00,28.5,16.0,30.20,NE,56,6.0,6.0,59,0.00,,,0.00,0,Wunderground v.1.15,2013-03-12 12:32:00,
2013-03-12 06:38:00,28.6,16.1,30.21,ENE,75,6.0,6.0,59,0.00,,,0.00,0,Wunderground v.1.15,2013-03-12 12:38:00,
2013-03-12 06:44:00,28.5,16.0,30.21,NE,54,5.0,5.0,59,0.00,,,0.00,0,Wunderground v.1.15,2013-03-12 12:44:00,
2013-03-12 06:50:00,28.5,16.0,30.20,NE,46,4.0,6.0,59,0.00,,,0.00,0,Wunderground v.1.15,2013-03-12 12:50:00,
2013-03-12 06:56:00,28.5,16.0,30.20,NE,51,5.0,9.0,59,0.00,,,0.00,0,Wunderground v.1.15,2013-03-12 12:56:00,
2013-03-12 07:02:00,28.6,16.1,30.20,NE,53,6.0,9.0,59,0.00,,,0.00,0,Wunderground v.1.15,2013-03-12 13:02:00,
2013-03-12 07:08:00,28.7,15.8,30.21,ENE,57,5.0,9.0,58,0.00,,,0.00,0,Wunderground v.1.15,2013-03-12 13:08:00,
2013-03-12 07:14:00,28.8,15.9,30.21,NE,49,4.0,5.0,58,0.00,,,0.00,0,Wunderground v.1.15,2013-03-12 13:14:00,
2013-03-12 07:22:00,28.9,16.0,30.21,NE,46,4.0,4.0,58,0.00,,,0.00,0,Wunderground v.1.15,2013-03-12 13:22:00,
2013-03-12 07:28:00,28.9,16.0,30.20,NE,49,5.0,6.0,58,0.00,,,0.00,0,Wunderground v.1.15,2013-03-12 13:28:00,
2013-03-12 07:34:00,29.0,16.1,30.20,NE,49,5.0,5.0,58,0.00,,,0.00,0,Wunderground v.1.15,2013-03-12 13:34:00,
2013-03-12 07:42:00,29.1,16.1,30.20,ENE,62,5.0,5.0,58,0.00,,,0.00,0,Wunderground v.1.15,2013-03-12 13:42:00,
2013-03-12 07:48:00,29.2,16.2,30.20,ENE,73,5.0,5.0,58,0.00,,,0.00,0,Wunderground v.1.15,2013-03-12 13:48:00,
2013-03-12 07:54:00,29.2,16.2,30.21,ENE,72,3.0,5.0,58,0.00,,,0.00,0,Wunderground v.1.15,2013-03-12 13:54:00,
2013-03-12 08:00:00,29.2,16.6,30.21,ENE,70,1.0,1.0,59,0.00,,,0.00,0,Wunderground v.1.15,2013-03-12 14:00:00,
2013-03-12 08:06:00,29.2,16.6,30.20,ENE,70,1.0,2.0,59,0.00,,,0.00,5,Wunderground v.1.15,2013-03-12 14:06:00,
2013-03-12 08:12:00,29.4,16.8,30.20,NE,53,3.0,5.0,59,0.00,,,0.00,7,Wunderground v.1.15,2013-03-12 14:12:00,
2013-03-12 08:18:00,29.6,17.0,30.19,NE,48,4.0,6.0,59,0.00,,,0.00,7,Wunderground v.1.15,2013-03-12 14:18:00,
2013-03-12 08:24:00,29.7,17.1,30.19,ENE,60,4.0,6.0,59,0.00,,,0.00,7,Wunderground v.1.15,2013-03-12 14:24:00,
2013-03-12 08:30:00,29.9,17.3,30.19,ENE,63,4.0,4.0,59,0.00,,,0.00,9,Wunderground v.1.15,2013-03-12 14:30:00,
2013-03-12 08:38:00,30.1,17.5,30.19,ENE,73,3.0,4.0,59,0.00,,,0.00,12,Wunderground v.1.15,2013-03-12 14:38:00,
2013-03-12 08:44:00,30.2,17.6,30.19,ENE,69,3.0,6.0,59,0.00,,,0.00,21,Wunderground v.1.15,2013-03-12 14:44:00,
2013-03-12 08:50:00,30.4,18.2,30.19,ENE,67,3.0,3.0,60,0.00,,,0.00,32,Wunderground v.1.15,2013-03-12 14:50:00,
2013-03-12 08:56:00,30.6,18.3,30.19,ENE,68,2.0,3.0,60,0.00,,,0.00,30,Wunderground v.1.15,2013-03-12 14:56:00,
2013-03-12 09:02:00,30.9,18.2,30.19,ENE,76,3.0,5.0,59,0.00,,,0.00,30,Wunderground v.1.15,2013-03-12 15:02:00,
2013-03-12 09:08:00,31.3,18.6,30.19,ENE,67,4.0,5.0,59,0.00,,,0.00,39,Wunderground v.1.15,2013-03-12 15:08:00,
2013-03-12 09:14:00,31.7,18.6,30.19,ENE,71,3.0,4.0,58,0.00,,,0.00,35,Wunderground v.1.15,2013-03-12 15:14:00,
2013-03-12 09:20:00,32.1,19.0,30.19,ENE,71,3.0,4.0,58,0.00,,,0.00,30,Wunderground v.1.15,2013-03-12 15:20:00,
2013-03-12 09:26:00,32.5,18.9,30.19,ENE,69,3.0,4.0,57,0.00,,,0.00,35,Wunderground v.1.15,2013-03-12 15:26:00,
2013-03-12 09:32:00,32.7,19.5,30.20,ENE,71,1.0,2.0,58,0.00,,,0.00,37,Wunderground v.1.15,2013-03-12 15:32:00,
2013-03-12 09:40:00,33.1,19.5,30.20,NE,53,1.0,1.0,57,0.00,,,0.00,42,Wunderground v.1.15,2013-03-12 15:40:00,
2013-03-12 09:46:00,33.5,19.9,30.20,ENE,61,2.0,4.0,57,0.00,,,0.00,49,Wunderground v.1.15,2013-03-12 15:46:00,
2013-03-12 09:54:00,34.1,20.9,30.20,East,86,3.0,4.0,58,0.00,,,0.00,69,Wunderground v.1.15,2013-03-12 15:54:00,
2013-03-12 10:00:00,34.8,20.7,30.20,ENE,70,3.0,3.0,56,0.00,,,0.00,83,Wunderground v.1.15,2013-03-12 16:00:00,
2013-03-12 10:08:00,35.7,21.1,30.19,ENE,69,3.0,6.0,55,0.00,,,0.00,163,Wunderground v.1.15,2013-03-12 16:08:00,
2013-03-12 10:14:00,36.7,21.6,30.19,East,79,4.0,6.0,54,0.00,,,0.00,221,Wunderground v.1.15,2013-03-12 16:14:00,
2013-03-12 10:20:00,37.6,22.4,30.19,NE,49,5.0,6.0,54,0.00,,,0.00,181,Wunderground v.1.15,2013-03-12 16:20:00,
2013-03-12 10:26:00,38.3,22.2,30.19,ENE,59,5.0,6.0,52,0.00,,,0.00,171,Wunderground v.1.15,2013-03-12 16:26:00,
2013-03-12 10:32:00,38.7,22.1,30.19,East,86,4.0,4.0,51,0.00,,,0.00,167,Wunderground v.1.15,2013-03-12 16:32:00,
2013-03-12 10:38:00,39.0,22.4,30.19,NE,42,4.0,5.0,51,0.00,,,0.00,211,Wunderground v.1.15,2013-03-12 16:38:00,
2013-03-12 10:44:00,39.4,22.8,30.19,NE,44,5.0,7.0,51,0.00,,,0.00,220,Wunderground v.1.15,2013-03-12 16:44:00,
2013-03-12 10:50:00,39.8,23.1,30.18,NE,38,5.0,6.0,51,0.00,,,0.00,371,Wunderground v.1.15,2013-03-12 16:50:00,
2013-03-12 10:56:00,40.8,23.6,30.18,ENE,68,6.0,11.0,50,0.00,,,0.00,432,Wunderground v.1.15,2013-03-12 16:56:00,
2013-03-12 11:02:00,41.7,23.4,30.18,NE,55,6.0,9.0,48,0.00,,,0.00,473,Wunderground v.1.15,2013-03-12 17:02:00,
2013-03-12 11:08:00,42.5,24.2,30.18,ENE,57,5.0,9.0,48,0.00,,,0.00,404,Wunderground v.1.15,2013-03-12 17:08:00,
2013-03-12 11:16:00,43.3,24.4,30.18,NE,40,7.0,7.0,47,0.00,,,0.00,554,Wunderground v.1.15,2013-03-12 17:16:00,
2013-03-12 11:24:00,44.2,25.7,30.18,NNE,28,9.0,13.0,48,0.00,,,0.00,515,Wunderground v.1.15,2013-03-12 17:24:00,
2013-03-12 11:30:00,44.1,25.1,30.18,ENE,76,8.0,8.0,47,0.00,,,0.00,251,Wunderground v.1.15,2013-03-12 17:30:00,
2013-03-12 11:36:00,43.8,25.4,30.18,ENE,59,6.0,11.0,48,0.00,,,0.00,227,Wunderground v.1.15,2013-03-12 17:36:00,
2013-03-12 11:44:00,43.4,25.5,30.18,ENE,66,7.0,8.0,49,0.00,,,0.00,265,Wunderground v.1.15,2013-03-12 17:44:00,
2013-03-12 11:50:00,43.4,26.9,30.17,NE,42,6.0,7.0,52,0.00,,,0.00,264,Wunderground v.1.15,2013-03-12 17:50:00,
2013-03-12 11:58:00,43.8,26.8,30.17,NE,38,6.0,7.0,51,0.00,,,0.00,301,Wunderground v.1.15,2013-03-12 17:58:00,
2013-03-12 12:04:00,44.0,26.5,30.17,ENE,60,6.0,6.0,50,0.00,,,0.00,250,Wunderground v.1.15,2013-03-12 18:04:00,
2013-03-12 12:10:00,44.2,27.2,30.16,NE,36,6.0,6.0,51,0.00,,,0.00,330,Wunderground v.1.15,2013-03-12 18:10:00,
2013-03-12 12:16:00,44.7,27.2,30.16,NE,46,5.0,7.0,50,0.00,,,0.00,283,Wunderground v.1.15,2013-03-12 18:16:00,
2013-03-12 12:22:00,45.2,26.7,30.16,ENE,63,5.0,6.0,48,0.00,,,0.00,260,Wunderground v.1.15,2013-03-12 18:22:00,
2013-03-12 12:28:00,45.5,26.9,30.16,ENE,72,5.0,7.0,48,0.00,,,0.00,190,Wunderground v.1.15,2013-03-12 18:28:00,
2013-03-12 12:34:00,45.6,27.0,30.16,NE,44,5.0,5.0,48,0.00,,,0.00,209,Wunderground v.1.15,2013-03-12 18:34:00,
2013-03-12 12:40:00,45.7,27.1,30.16,ENE,76,3.0,6.0,48,0.00,,,0.00,232,Wunderground v.1.15,2013-03-12 18:40:00,
2013-03-12 12:46:00,46.0,27.4,30.16,ENE,65,4.0,7.0,48,0.00,,,0.00,225,Wunderground v.1.15,2013-03-12 18:46:00,
2013-03-12 12:56:00,46.3,27.2,30.16,ENE,63,5.0,6.0,47,0.00,,,0.00,236,Wunderground v.1.15,2013-03-12 18:56:00,
2013-03-12 13:02:00,46.5,27.8,30.16,ENE,74,6.0,9.0,48,0.00,,,0.00,253,Wunderground v.1.15,2013-03-12 19:02:00,
2013-03-12 13:08:00,46.6,27.9,30.16,East,91,8.0,15.0,48,0.00,,,0.00,258,Wunderground v.1.15,2013-03-12 19:08:00,
2013-03-12 13:14:00,46.7,28.5,30.15,East,99,9.0,11.0,49,0.00,,,0.00,276,Wunderground v.1.15,2013-03-12 19:14:00,
2013-03-12 13:20:00,46.9,28.7,30.15,ESE,117,9.0,10.0,49,0.00,,,0.00,274,Wunderground v.1.15,2013-03-12 19:20:00,
2013-03-12 13:26:00,46.8,28.6,30.15,SE,126,10.0,18.0,49,0.00,,,0.00,274,Wunderground v.1.15,2013-03-12 19:26:00,
2013-03-12 13:34:00,46.8,29.1,30.15,ESE,121,11.0,11.0,50,0.00,,,0.00,325,Wunderground v.1.15,2013-03-12 19:34:00,
2013-03-12 13:42:00,47.1,28.9,30.15,SE,128,11.0,14.0,49,0.00,,,0.00,216,Wunderground v.1.15,2013-03-12 19:42:00,
2013-03-12 13:48:00,46.9,28.7,30.15,East,84,12.0,18.0,49,0.00,,,0.00,246,Wunderground v.1.15,2013-03-12 19:48:00,
2013-03-12 13:54:00,47.0,28.8,30.15,ESE,123,11.0,13.0,49,0.00,,,0.00,290,Wunderground v.1.15,2013-03-12 19:54:00,
2013-03-12 14:00:00,47.1,28.9,30.14,SE,128,11.0,12.0,49,0.00,,,0.00,287,Wunderground v.1.15,2013-03-12 20:00:00,
2013-03-12 14:06:00,47.3,29.1,30.14,ESE,117,10.0,13.0,49,0.00,,,0.00,236,Wunderground v.1.15,2013-03-12 20:06:00,
2013-03-12 14:12:00,47.3,29.1,30.13,ESE,102,10.0,12.0,49,0.00,,,0.00,288,Wunderground v.1.15,2013-03-12 20:12:00,
2013-03-12 14:18:00,47.7,28.9,30.13,SE,134,10.0,14.0,48,0.00,,,0.00,267,Wunderground v.1.15,2013-03-12 20:18:00,
2013-03-12 14:24:00,48.0,29.2,30.13,ENE,74,12.0,12.0,48,0.00,,,0.00,301,Wunderground v.1.15,2013-03-12 20:24:00,
2013-03-12 14:30:00,48.4,29.1,30.13,ESE,113,11.0,11.0,47,0.00,,,0.00,334,Wunderground v.1.15,2013-03-12 20:30:00,
2013-03-12 14:36:00,48.8,28.9,30.12,ESE,113,11.0,11.0,46,0.00,,,0.00,387,Wunderground v.1.15,2013-03-12 20:36:00,
2013-03-12 14:42:00,49.4,29.5,30.11,ESE,103,10.0,13.0,46,0.00,,,0.00,352,Wunderground v.1.15,2013-03-12 20:42:00,
2013-03-12 14:50:00,49.9,29.4,30.12,East,89,12.0,12.0,45,0.00,,,0.00,302,Wunderground v.1.15,2013-03-12 20:50:00,
2013-03-12 14:58:00,49.9,29.4,30.11,SE,128,11.0,12.0,45,0.00,,,0.00,401,Wunderground v.1.15,2013-03-12 20:58:00,
2013-03-12 15:04:00,50.2,29.7,30.10,South,178,11.0,12.0,45,0.00,,,0.00,612,Wunderground v.1.15,2013-03-12 21:04:00,
2013-03-12 15:10:00,51.1,29.9,30.10,ESE,105,9.0,9.0,44,0.00,,,0.00,587,Wunderground v.1.15,2013-03-12 21:10:00,
2013-03-12 15:16:00,51.9,30.1,30.10,East,97,9.0,9.0,43,0.00,,,0.00,510,Wunderground v.1.15,2013-03-12 21:16:00,
2013-03-12 15:22:00,52.1,30.3,30.10,ESE,115,10.0,13.0,43,0.00,,,0.00,454,Wunderground v.1.15,2013-03-12 21:22:00,
2013-03-12 15:28:00,52.1,30.3,30.10,SSE,154,11.0,16.0,43,0.00,,,0.00,482,Wunderground v.1.15,2013-03-12 21:28:00,
2013-03-12 15:34:00,52.2,30.4,30.10,South,171,10.0,13.0,43,0.00,,,0.00,360,Wunderground v.1.15,2013-03-12 21:34:00,
2013-03-12 15:40:00,51.9,30.1,30.09,SE,133,10.0,15.0,43,0.00,,,0.00,376,Wunderground v.1.15,2013-03-12 21:40:00,
2013-03-12 15:48:00,51.8,30.0,30.09,ESE,121,9.0,10.0,43,0.00,,,0.00,380,Wunderground v.1.15,2013-03-12 21:48:00,
2013-03-12 15:54:00,51.9,30.1,30.09,South,181,9.0,12.0,43,0.00,,,0.00,359,Wunderground v.1.15,2013-03-12 21:54:00,
2013-03-12 16:00:00,52.0,30.2,30.09,South,170,9.0,11.0,43,0.00,,,0.00,297,Wunderground v.1.15,2013-03-12 22:00:00,
2013-03-12 16:06:00,52.0,30.2,30.09,South,171,9.0,11.0,43,0.00,,,0.00,436,Wunderground v.1.15,2013-03-12 22:06:00,
2013-03-12 16:12:00,52.3,30.4,30.09,South,169,8.0,9.0,43,0.00,,,0.00,359,Wunderground v.1.15,2013-03-12 22:12:00,
2013-03-12 16:18:00,52.6,29.5,30.09,South,186,8.0,9.0,41,0.00,,,0.00,339,Wunderground v.1.15,2013-03-12 22:18:00,
2013-03-12 16:24:00,52.7,30.2,30.09,SSE,168,8.0,11.0,42,0.00,,,0.00,397,Wunderground v.1.15,2013-03-12 22:24:00,
2013-03-12 16:30:00,53.2,28.9,30.09,South,173,10.0,17.0,39,0.00,,,0.00,269,Wunderground v.1.15,2013-03-12 22:30:00,
2013-03-12 16:36:00,52.7,29.6,30.09,South,169,12.0,20.0,41,0.00,,,0.00,392,Wunderground v.1.15,2013-03-12 22:36:00,
2013-03-12 16:42:00,52.6,29.5,30.09,South,171,11.0,14.0,41,0.00,,,0.00,700,Wunderground v.1.15,2013-03-12 22:42:00,
2013-03-12 16:48:00,53.1,29.4,30.08,SSE,164,11.0,14.0,40,0.00,,,0.00,717,Wunderground v.1.15,2013-03-12 22:48:00,
2013-03-12 16:54:00,53.6,29.2,30.09,SE,130,11.0,13.0,39,0.00,,,0.00,316,Wunderground v.1.15,2013-03-12 22:54:00,
2013-03-12 17:00:00,53.4,29.7,30.09,SSE,168,12.0,14.0,40,0.00,,,0.00,359,Wunderground v.1.15,2013-03-12 23:00:00,
2013-03-12 17:06:00,53.0,29.3,30.09,SSE,159,12.0,19.0,40,0.00,,,0.00,373,Wunderground v.1.15,2013-03-12 23:06:00,
2013-03-12 17:12:00,53.1,29.4,30.09,ESE,109,11.0,12.0,40,0.00,,,0.00,315,Wunderground v.1.15,2013-03-12 23:12:00,
2013-03-12 17:18:00,52.9,29.2,30.09,South,180,9.0,12.0,40,0.00,,,0.00,195,Wunderground v.1.15,2013-03-12 23:18:00,
2013-03-12 17:24:00,52.4,29.4,30.09,SSE,161,8.0,11.0,41,0.00,,,0.00,137,Wunderground v.1.15,2013-03-12 23:24:00,
2013-03-12 17:30:00,52.0,29.0,30.09,South,186,7.0,7.0,41,0.00,,,0.00,121,Wunderground v.1.15,2013-03-12 23:30:00,
2013-03-12 17:38:00,51.5,28.6,30.08,SSE,167,4.0,7.0,41,0.00,,,0.00,102,Wunderground v.1.15,2013-03-12 23:38:00,
2013-03-12 17:44:00,51.1,28.8,30.09,SSW,206,5.0,9.0,42,0.00,,,0.00,88,Wunderground v.1.15,2013-03-12 23:44:00,
2013-03-12 17:50:00,50.8,28.5,30.08,South,182,6.0,9.0,42,0.00,,,0.00,83,Wunderground v.1.15,2013-03-12 23:50:00,
2013-03-12 17:56:00,50.5,28.8,30.08,South,176,5.0,7.0,43,0.00,,,0.00,84,Wunderground v.1.15,2013-03-12 23:56:00,
2013-03-12 18:02:00,50.3,28.6,30.08,South,184,4.0,6.0,43,0.00,,,0.00,77,Wunderground v.1.15,2013-03-13 00:02:00,
2013-03-12 18:10:00,50.0,28.9,30.08,SSE,162,5.0,5.0,44,0.00,,,0.00,69,Wunderground v.1.15,2013-03-13 00:10:00,
2013-03-12 18:16:00,49.7,28.6,30.08,SSE,163,4.0,5.0,44,0.00,,,0.00,58,Wunderground v.1.15,2013-03-13 00:16:00,
2013-03-12 18:22:00,49.5,28.5,30.08,South,175,4.0,4.0,44,0.00,,,0.00,53,Wunderground v.1.15,2013-03-13 00:22:00,
2013-03-12 18:28:00,49.3,28.8,30.08,SSE,168,3.0,4.0,45,0.00,,,0.00,51,Wunderground v.1.15,2013-03-13 00:28:00,
2013-03-12 18:34:00,49.0,28.6,30.08,SSE,168,3.0,6.0,45,0.00,,,0.00,44,Wunderground v.1.15,2013-03-13 00:34:00,
2013-03-12 18:42:00,48.7,28.8,30.09,SSE,163,3.0,3.0,46,0.00,,,0.00,32,Wunderground v.1.15,2013-03-13 00:42:00,
2013-03-12 18:48:00,48.5,28.6,30.08,SSE,163,1.0,3.0,46,0.00,,,0.00,28,Wunderground v.1.15,2013-03-13 00:48:00,
2013-03-12 18:54:00,48.3,28.5,30.09,SSE,163,2.0,3.0,46,0.00,,,0.00,21,Wunderground v.1.15,2013-03-13 00:54:00,
2013-03-12 19:00:00,48.0,28.7,30.08,SSE,163,2.0,2.0,47,0.00,,,0.00,18,Wunderground v.1.15,2013-03-13 01:00:00,
2013-03-12 19:06:00,47.7,28.4,30.08,SSW,201,3.0,6.0,47,0.00,,,0.00,14,Wunderground v.1.15,2013-03-13 01:06:00,
2013-03-12 19:14:00,47.4,28.7,30.08,South,174,4.0,4.0,48,0.00,,,0.00,11,Wunderground v.1.15,2013-03-13 01:14:00,
2013-03-12 19:20:00,47.1,27.9,30.09,South,174,2.0,2.0,47,0.00,,,0.00,9,Wunderground v.1.15,2013-03-13 01:20:00,
2013-03-12 19:26:00,46.8,27.6,30.09,South,174,0.0,2.0,47,0.00,,,0.00,5,Wunderground v.1.15,2013-03-13 01:26:00,
2013-03-12 19:32:00,46.4,27.8,30.09,South,174,0.0,4.0,48,0.00,,,0.00,0,Wunderground v.1.15,2013-03-13 01:32:00,
2013-03-12 19:38:00,46.0,27.4,30.09,SSW,212,1.0,4.0,48,0.00,,,0.00,0,Wunderground v.1.15,2013-03-13 01:38:00,
2013-03-12 19:44:00,45.7,27.1,30.09,SSW,212,1.0,1.0,48,0.00,,,0.00,0,Wunderground v.1.15,2013-03-13 01:44:00,
2013-03-12 19:50:00,45.2,26.7,30.09,SSW,212,0.0,0.0,48,0.00,,,0.00,0,Wunderground v.1.15,2013-03-13 01:50:00,
2013-03-12 19:58:00,44.6,26.1,30.09,SSW,212,0.0,0.0,48,0.00,,,0.00,0,Wunderground v.1.15,2013-03-13 01:58:00,
2013-03-12 20:04:00,44.2,26.2,30.09,SSW,212,0.0,0.0,49,0.00,,,0.00,0,Wunderground v.1.15,2013-03-13 02:04:00,
2013-03-12 20:10:00,43.7,25.8,30.09,SSW,212,0.0,0.0,49,0.00,,,0.00,0,Wunderground v.1.15,2013-03-13 02:10:00,
2013-03-12 20:16:00,43.1,25.2,30.09,SSW,212,0.0,0.0,49,0.00,,,0.00,0,Wunderground v.1.15,2013-03-13 02:16:00,
2013-03-12 20:22:00,42.4,25.5,30.10,SSW,212,0.0,0.0,51,0.00,,,0.00,0,Wunderground v.1.15,2013-03-13 02:22:00,
2013-03-12 20:28:00,42.0,26.1,30.10,ENE,65,1.0,3.0,53,0.00,,,0.00,0,Wunderground v.1.15,2013-03-13 02:28:00,
2013-03-12 20:34:00,41.9,26.9,30.10,NE,40,2.0,2.0,55,0.00,,,0.00,0,Wunderground v.1.15,2013-03-13 02:34:00,
2013-03-12 20:40:00,42.4,26.9,30.11,North,5,2.0,4.0,54,0.00,,,0.00,0,Wunderground v.1.15,2013-03-13 02:40:00,
2013-03-12 20:46:00,42.8,26.8,30.11,NE,41,2.0,5.0,53,0.00,,,0.00,0,Wunderground v.1.15,2013-03-13 02:46:00,
2013-03-12 20:52:00,43.4,27.4,30.11,NNE,26,3.0,3.0,53,0.00,,,0.00,0,Wunderground v.1.15,2013-03-13 02:52:00,
2013-03-12 20:58:00,43.9,27.9,30.11,NE,38,3.0,6.0,53,0.00,,,0.00,0,Wunderground v.1.15,2013-03-13 02:58:00,
2013-03-12 21:04:00,44.0,28.4,30.12,NE,41,2.0,2.0,54,0.00,,,0.00,0,Wunderground v.1.15,2013-03-13 03:04:00,
2013-03-12 21:10:00,44.1,28.5,30.12,NE,39,0.0,2.0,54,0.00,,,0.00,0,Wunderground v.1.15,2013-03-13 03:10:00,
2013-03-12 21:18:00,44.0,28.0,30.12,NNE,25,0.0,2.0,53,0.00,,,0.00,0,Wunderground v.1.15,2013-03-13 03:18:00,
2013-03-12 21:26:00,43.8,28.7,30.12,NNE,25,0.0,0.0,55,0.00,,,0.00,0,Wunderground v.1.15,2013-03-13 03:26:00,
2013-03-12 21:32:00,43.6,28.9,30.12,NNE,24,1.0,1.0,56,0.00,,,0.00,0,Wunderground v.1.15,2013-03-13 03:32:00,
2013-03-12 21:38:00,43.5,28.8,30.13,NNE,24,0.0,1.0,56,0.00,,,0.00,0,Wunderground v.1.15,2013-03-13 03:38:00,
2013-03-12 21:44:00,43.2,28.5,30.13,NNE,24,0.0,0.0,56,0.00,,,0.00,0,Wunderground v.1.15,2013-03-13 03:44:00,
2013-03-12 21:50:00,42.9,28.7,30.13,NNE,24,0.0,0.0,57,0.00,,,0.00,0,Wunderground v.1.15,2013-03-13 03:50:00,
2013-03-12 21:56:00,42.6,28.8,30.13,NNE,24,0.0,0.0,58,0.00,,,0.00,0,Wunderground v.1.15,2013-03-13 03:56:00,
2013-03-12 22:00:00,42.4,28.7,30.14,NNE,24,0.0,0.0,58,0.00,,,0.00,0,Wunderground v.1.15,2013-03-13 04:00:00,
2013-03-12 22:02:00,42.4,28.7,30.14,NNE,24,0.0,0.0,58,0.00,,,0.00,0,Wunderground v.1.15,2013-03-13 04:02:00,
2013-03-12 22:04:00,42.3,28.6,30.14,NNE,24,0.0,0.0,58,0.00,,,0.00,0,Wunderground v.1.15,2013-03-13 04:04:00,
2013-03-12 22:10:00,42.2,28.5,30.14,NNE,24,0.0,0.0,58,0.00,,,0.00,0,Wunderground v.1.15,2013-03-13 04:10:00,
2013-03-12 22:16:00,42.1,28.8,30.15,South,173,0.0,0.0,59,0.00,,,0.00,0,Wunderground v.1.15,2013-03-13 04:16:00,
2013-03-12 22:22:00,42.1,28.4,30.15,SSE,163,0.0,1.0,58,0.00,,,0.00,0,Wunderground v.1.15,2013-03-13 04:22:00,
2013-03-12 22:28:00,42.3,29.0,30.15,SSE,163,0.0,1.0,59,0.00,,,0.00,0,Wunderground v.1.15,2013-03-13 04:28:00,
2013-03-12 22:34:00,42.4,29.9,30.16,SSE,163,0.0,0.0,61,0.00,,,0.00,0,Wunderground v.1.15,2013-03-13 04:34:00,
2013-03-12 22:40:00,42.6,28.4,30.16,SSE,163,0.0,0.0,57,0.00,,,0.00,0,Wunderground v.1.15,2013-03-13 04:40:00,
2013-03-12 22:46:00,42.8,29.0,30.15,South,169,1.0,4.0,58,0.00,,,0.00,0,Wunderground v.1.15,2013-03-13 04:46:00,
2013-03-12 22:52:00,42.9,29.1,30.15,South,169,1.0,1.0,58,0.00,,,0.00,0,Wunderground v.1.15,2013-03-13 04:52:00,
2013-03-12 22:58:00,42.9,28.7,30.16,South,169,0.0,1.0,57,0.00,,,0.00,0,Wunderground v.1.15,2013-03-13 04:58:00,
2013-03-12 23:04:00,42.8,28.6,30.15,South,169,0.0,0.0,57,0.00,,,0.00,0,Wunderground v.1.15,2013-03-13 05:04:00,
2013-03-12 23:10:00,42.5,28.3,30.15,South,169,0.0,0.0,57,0.00,,,0.00,0,Wunderground v.1.15,2013-03-13 05:10:00,
2013-03-12 23:16:00,42.3,27.7,30.15,SSE,167,0.0,0.0,56,0.00,,,0.00,0,Wunderground v.1.15,2013-03-13 05:16:00,
2013-03-12 23:22:00,42.1,27.9,30.15,SSE,167,0.0,0.0,57,0.00,,,0.00,0,Wunderground v.1.15,2013-03-13 05:22:00,
2013-03-12 23:28:00,41.8,27.2,30.15,SE,131,0.0,0.0,56,0.00,,,0.00,0,Wunderground v.1.15,2013-03-13 05:28:00,
2013-03-12 23:34:00,41.5,27.8,30.15,SSE,150,0.0,0.0,58,0.00,,,0.00,0,Wunderground v.1.15,2013-03-13 05:34:00,
2013-03-12 23:40:00,41.2,27.5,30.15,SSE,150,0.0,0.0,58,0.00,,,0.00,0,Wunderground v.1.15,2013-03-13 05:40:00,
2013-03-12 23:46:00,41.0,27.8,30.15,SSE,164,2.0,5.0,59,0.00,,,0.00,0,Wunderground v.1.15,2013-03-13 05:46:00,
2013-03-12 23:52:00,41.1,28.3,30.15,South,182,4.0,8.0,60,0.00,,,0.00,0,Wunderground v.1.15,2013-03-13 05:52:00,
2013-03-12 23:58:00,41.3,28.4,30.15,SSE,165,3.0,8.0,60,0.00,,,0.00,0,Wunderground v.1.15,2013-03-13 05:58:00,